Wednesday, January 17, 2018, 5:00 PM EST
Back to Local

KTTN, Trenton Mercer County Airport

Location: Trenton, NJ, United States Lat: 40.283
Local Time: 5:00 PM EST (22:00 GMT) Lon: -74.817
Time Zone: US/Eastern Elev: 213 ft

Show me the last for .
Show Decoded

2018-01-17 15:53 METAR KTTN 172053Z 32008KT 6SM HZ CLR M03/M08 A3021 RMK AO2 SLP228 T10281078
                 56005 =
2018-01-17 14:53 METAR KTTN 171953Z 30007KT 6SM HZ FEW017 M02/M07 A3022 RMK AO2 SLP229 T10221067
                 =
2018-01-17 13:53 METAR KTTN 171853Z 31010KT 6SM HZ FEW046 M02/M06 A3022 RMK AO2 SLP229 T10221056
                 =
2018-01-17 13:37 METAR KTTN 171837Z 31010KT 6SM HZ FEW014 SCT046 M02/M06 A3022 RMK AO2 T10221056
                 =
2018-01-17 12:53 METAR KTTN 171753Z 30010KT 6SM HZ BKN013 OVC044 M02/M04 A3023 RMK AO2 SLP233
                 60004 I6000 T10171044 10006 21017 58019 =
2018-01-17 12:11 METAR KTTN 171711Z 31009G14KT 6SM HZ SCT015 BKN020 M02/M04 A3026 RMK AO2
                 T10171044 =
2018-01-17 11:53 METAR KTTN 171653Z 30009KT 5SM BR OVC013 M02/M04 A3027 RMK AO2 SNE10 SLP245
                 P0001 I1000 T10171039 =
2018-01-17 11:13 METAR KTTN 171613Z 31009KT 4SM HZ BKN010 OVC028 M01/M04 A3028 RMK AO2 SNE10
                 P0001 T10111039 =
2018-01-17 11:01 METAR KTTN 171601Z 29009KT 2SM -SN BR BKN011 OVC028 M01/M03 A3029 RMK AO2 P0001
                 T10111028 =
2018-01-17 10:53 METAR KTTN 171553Z 31007KT 1 1/2SM -SN BR SCT011 OVC028 M01/M03 A3029 RMK AO2
                 SLP253 P0001 T10111028 =
2018-01-17 10:48 METAR KTTN 171548Z 32010KT 1 1/2SM -SN BR FEW008 SCT011 OVC030 M01/M03 A3029 RMK
                 AO2 P0001 =
2018-01-17 10:41 METAR KTTN 171541Z 31008G16KT 1 1/4SM -SN BR SCT008 BKN027 OVC035 M01/M03 A3029
                 RMK AO2 P0001 T10111033 =
2018-01-17 10:35 METAR KTTN 171535Z 30012G16KT 1SM -SN BR BKN008 BKN012 OVC030 M01/M02 A3029 RMK
                 AO2 P0001 T10111022 =
2018-01-17 10:20 METAR KTTN 171520Z 31008KT 3/4SM -SN BR BKN008 OVC020 M01/M02 A3029 RMK AO2
                 P0000 T10061022 =
2018-01-17 09:53 METAR KTTN 171453Z 31005KT 1/2SM -SN FZFG FEW006 BKN019 OVC030 M01/M02 A3029 RMK
                 AO2 SLP254 P0001 60002 T10061017 53008 =
2018-01-17 09:46 METAR KTTN 171446Z 30007KT 1/2SM SN FZFG SCT009 BKN019 OVC028 M01/M02 A3029 RMK
                 AO2 P0001 T10061017 =
2018-01-17 09:27 METAR KTTN 171427Z 30007KT 1/2SM SN FZFG BKN010 OVC017 M01/M02 A3029 RMK AO2
                 P0001 T10061017 =
2018-01-17 09:14 METAR KTTN 171414Z 30008KT 1/2SM SN FZFG BKN008 OVC015 M01/M02 A3029 RMK AO2
                 P0001 T10061017 =
2018-01-17 08:53 METAR KTTN 171353Z 31006KT 3/4SM SN BR OVC010 00/M01 A3028 RMK AO2 CIG 005V014
                 SLP250 P0000 T00001011 =
2018-01-17 07:53 METAR KTTN 171253Z 32004KT 1/2SM SN FG OVC008 01/00 A3027 RMK AO2 SLP248 P0001
                 T00060000 =
2018-01-17 07:27 METAR KTTN 171227Z 32007KT 3/4SM -SN BR BKN008 OVC018 01/00 A3027 RMK AO2 P0000
                 T00060000 =
2018-01-17 07:16 METAR KTTN 171216Z 31007KT 3/4SM -SN BR SCT005 BKN010 OVC022 01/00 A3027 RMK AO2
                 P0000 T00060000 =
2018-01-17 06:53 METAR KTTN 171153Z 32006KT 1SM -SN BR BKN006 OVC024 01/00 A3027 RMK AO2 SNB1057
                 SLP245 P0001 60001 70001 I6003 T00060000 10017 20006 50004 =
2018-01-17 06:50 METAR KTTN 171150Z 32005KT 1SM -SN BR BKN006 OVC024 01/00 A3027 RMK AO2 SNB1057
                 P0001 =
2018-01-17 06:34 METAR KTTN 171134Z 32004KT 3/4SM -SN BR BKN006 OVC015 01/00 A3026 RMK AO2
                 SNB1057 P0000 T00060000 =
2018-01-17 06:18 METAR KTTN 171118Z 32004KT 3/4SM -SN BR SCT006 OVC015 01/00 A3026 RMK AO2
                 SNB1057 P0000 T00060000 =
2018-01-17 05:53 METAR KTTN 171053Z COR 32004KT 3/4SM BR -SN BKN006 OVC013 01/00 A3026 RMK AO2
                 SLP244 I1002 T00060000 =
2018-01-17 05:45 METAR KTTN 171045Z 32003KT 3/4SM BR BKN006 OVC013 01/00 A3026 RMK AO2 I1001
                 T00060000 =
2018-01-17 04:53 METAR KTTN 170953Z AUTO 31004KT 1 1/4SM BR BKN006 OVC015 01/01 A3025 RMK AO2
                 SLP240 T00110006 PWINO FZRANO =
2018-01-17 04:42 METAR KTTN 170942Z AUTO 30003KT 1 3/4SM BR BKN006 BKN012 OVC017 01/01 A3025 RMK
                 AO2 T00110006 PWINO FZRANO =
2018-01-17 04:26 METAR KTTN 170926Z AUTO 33004KT 2SM BR FEW006 OVC012 01/01 A3025 RMK AO2
                 T00110006 PWINO FZRANO =
2018-01-17 04:16 METAR KTTN 170916Z AUTO 32004KT 1 3/4SM BR FEW006 OVC012 01/01 A3025 RMK AO2
                 T00110006 PWINO FZRANO =
2018-01-17 04:09 METAR KTTN 170909Z AUTO 32004KT 2SM BR FEW006 OVC012 01/01 A3025 RMK AO2
                 T00110006 PWINO FZRANO =
2018-01-17 03:53 METAR KTTN 170853Z AUTO 33004KT 2SM BR OVC011 01/01 A3026 RMK AO2 SLP242 I1001
                 I3001 T00110006 58009 PWINO FZRANO =
2018-01-17 03:31 METAR KTTN 170831Z AUTO 34006KT 1 3/4SM BR OVC010 01/00 A3026 RMK AO2 I1000
                 T00110000 PWINO FZRANO =
2018-01-17 03:20 METAR KTTN 170820Z AUTO 36005KT 1 3/4SM BR OVC009 01/00 A3026 RMK AO2 I1000
                 T00110000 PWINO FZRANO =
2018-01-17 02:53 METAR KTTN 170753Z AUTO 34005KT 2SM BR OVC009 01/00 A3027 RMK AO2 SLP247
                 T00110000 PWINO FZRANO =
2018-01-17 02:35 METAR KTTN 170735Z AUTO 34007KT 2SM BR OVC009 01/M01 A3028 RMK AO2 T00111006
                 PWINO FZRANO =
2018-01-17 02:15 METAR KTTN 170715Z AUTO 32005KT 4SM BR OVC009 01/M01 A3028 RMK AO2 T00111006
                 PWINO FZRANO =
2018-01-17 01:53 METAR KTTN 170653Z AUTO 33005KT 5SM BR OVC010 01/M01 A3028 RMK AO2 SLP249
                 T00111006 PWINO FZRANO =
2018-01-17 00:53 METAR KTTN 170553Z AUTO 34006KT 5SM BR OVC012 02/M01 A3029 RMK AO2 SLP251
                 T00171006 10028 20011 58018 PWINO FZRANO =
2018-01-17 00:06 METAR KTTN 170506Z AUTO 00000KT 5SM BR BKN014 OVC050 02/00 A3030 RMK AO2
                 T00170000 PWINO FZRANO =
2018-01-16 23:53 METAR KTTN 170453Z AUTO 06004KT 5SM BR FEW015 OVC049 02/00 A3030 RMK AO2 SLP258
                 T00170000 400561033 PWINO FZRANO =
2018-01-16 22:53 METAR KTTN 170353Z AUTO 01004KT 6SM BR FEW023 SCT029 BKN038 02/M01 A3033 RMK AO2
                 SLP265 T00171006 PWINO FZRANO =
2018-01-16 21:53 METAR KTTN 170253Z 35004KT 7SM FEW026 BKN037 02/M01 A3034 RMK AO2 SLP270
                 T00171006 58009 =
2018-01-16 20:53 METAR KTTN 170153Z 02004KT 8SM BKN036 02/M01 A3035 RMK AO2 SLP275 T00171011 =
2018-01-16 20:35 METAR KTTN 170135Z 02003KT 9SM FEW030 02/M01 A3036 RMK AO2 T00221011 =
2018-01-16 19:53 METAR KTTN 170053Z 00000KT 8SM BKN029 02/M01 A3036 RMK AO2 SLP279 T00221011 =
2018-01-16 18:53 METAR KTTN 162353Z 09004KT 9SM FEW039 03/M01 A3038 RMK AO2 SLP284 T00281011
                 10056 20022 51004 =
2018-01-16 18:41 METAR KTTN 162341Z 10003KT 9SM SCT021 SCT031 BKN039 03/M01 A3039 RMK AO2
                 T00281011 =
2018-01-16 18:19 METAR KTTN 162319Z 09005KT 9SM BKN020 OVC037 03/M01 A3037 RMK AO2 T00331011 =
2018-01-16 17:53 METAR KTTN 162253Z 05005KT 10SM FEW021 OVC036 03/M02 A3037 RMK AO2 SLP282
                 T00331017 =
2018-01-16 17:50 METAR KTTN 162250Z 05005KT 10SM FEW021 SCT027 OVC036 03/M02 A3037 RMK AO2 =
2018-01-16 17:15 METAR KTTN 162215Z 03003KT 10SM FEW021 BKN027 OVC037 04/M02 A3037 RMK AO2
                 T00391017 =

Support USWX by starting your Amazon purchase here.